Time;durP1;ratioP1;P1;durP2;ratioP2;P2;SDS_P1;SDS_P2;PMS_P1;PMS_P2;Temp;Humidity;BMP_temperature;BMP_pressure;BME280_temperature;BME280_humidity;BME280_pressure;Samples;Min_cycle;Max_cycle;Signal;HPM_P1;HPM_P2
2024/03/06 00:00:46;;;;;;;53.90;29.43;;;4.60;99.90;;;;;;5113342;28;20433;-74
2024/03/06 00:03:11;;;;;;;67.47;32.10;;;4.60;99.90;;;;;;5113279;28;20391;-74
2024/03/06 00:05:37;;;;;;;64.10;30.03;;;4.50;99.90;;;;;;5113307;28;20939;-73
2024/03/06 00:08:03;;;;;;;62.97;31.67;;;4.50;99.90;;;;;;5113170;28;20466;-75
2024/03/06 00:10:29;;;;;;;59.60;30.27;;;4.50;99.90;;;;;;5113892;28;20459;-73
2024/03/06 00:12:55;;;;;;;66.33;31.43;;;4.50;99.90;;;;;;5113307;28;20444;-73
2024/03/06 00:15:21;;;;;;;61.73;30.60;;;4.50;99.90;;;;;;5112542;28;20948;-74
2024/03/06 00:17:46;;;;;;;61.85;31.42;;;4.60;99.90;;;;;;5112696;28;20393;-72
2024/03/06 00:20:12;;;;;;;66.43;32.38;;;4.60;99.90;;;;;;5112615;28;20759;-73
2024/03/06 00:22:38;;;;;;;64.97;32.80;;;4.70;99.90;;;;;;5094135;28;20384;-74
2024/03/06 00:25:04;;;;;;;64.18;32.58;;;4.70;99.90;;;;;;5094181;28;20464;-74
2024/03/06 00:27:29;;;;;;;60.88;31.50;;;4.70;99.90;;;;;;5112309;28;20413;-75
2024/03/06 00:29:55;;;;;;;61.88;31.75;;;4.80;99.90;;;;;;5112791;28;20384;-73
2024/03/06 00:32:20;;;;;;;69.32;34.03;;;4.80;99.90;;;;;;5112471;28;20421;-73
2024/03/06 00:34:46;;;;;;;59.03;32.40;;;4.80;99.90;;;;;;5112541;28;20467;-74
2024/03/06 00:37:11;;;;;;;63.22;32.90;;;4.70;99.90;;;;;;5111916;28;20373;-74
2024/03/06 00:39:37;;;;;;;70.07;33.95;;;4.80;99.90;;;;;;5112123;28;20388;-73
2024/03/06 00:42:03;;;;;;;61.40;32.40;;;5.10;99.90;;;;;;5112138;28;20930;-74
2024/03/06 00:44:28;;;;;;;54.80;31.25;;;5.30;99.90;;;;;;5112608;28;20419;-74
2024/03/06 00:46:54;;;;;;;62.90;33.33;;;5.10;99.90;;;;;;5112063;28;20372;-74
2024/03/06 00:49:20;;;;;;;57.23;30.00;;;4.80;99.90;;;;;;5112911;28;20847;-74
2024/03/06 00:51:45;;;;;;;57.37;30.13;;;4.60;99.90;;;;;;5112424;28;20388;-74
2024/03/06 00:54:11;;;;;;;72.00;33.70;;;4.50;99.90;;;;;;5112775;28;20375;-73
2024/03/06 00:56:39;;;;;;;65.17;32.23;;;4.50;99.90;;;;;;5114338;28;20447;-73
2024/03/06 00:59:05;;;;;;;67.55;32.70;;;4.40;99.90;;;;;;5116943;28;20374;-75
2024/03/06 01:01:31;;;;;;;65.50;32.00;;;4.40;99.90;;;;;;5123359;28;20463;-76
2024/03/06 01:03:56;;;;;;;57.83;30.30;;;4.40;99.90;;;;;;5128013;28;20479;-76
2024/03/06 01:06:22;;;;;;;61.63;30.88;;;4.30;99.90;;;;;;5126215;28;20396;-73
2024/03/06 01:08:48;;;;;;;63.45;32.67;;;4.30;99.90;;;;;;5112215;28;20403;-72
2024/03/06 01:11:16;;;;;;;64.38;32.05;;;4.30;99.90;;;;;;5112922;28;20373;-74
2024/03/06 01:13:42;;;;;;;65.95;31.90;;;4.20;99.90;;;;;;5094575;28;20428;-75
2024/03/06 01:16:07;;;;;;;69.28;33.10;;;4.20;99.90;;;;;;5112697;28;20463;-73
2024/03/06 01:18:33;;;;;;;64.00;30.95;;;4.20;99.90;;;;;;5112471;28;20380;-73
2024/03/06 01:20:59;;;;;;;62.87;31.47;;;4.20;99.90;;;;;;5113294;28;20399;-73
2024/03/06 01:23:24;;;;;;;71.13;33.47;;;4.20;99.90;;;;;;5112973;28;20388;-76
2024/03/06 01:25:50;;;;;;;60.20;30.50;;;4.30;99.90;;;;;;5094334;28;20392;-73
2024/03/06 01:28:15;;;;;;;63.90;30.60;;;4.30;99.90;;;;;;5112536;28;20392;-74
2024/03/06 01:30:41;;;;;;;61.00;30.60;;;4.30;99.90;;;;;;5112012;28;20460;-74
2024/03/06 01:33:07;;;;;;;65.33;31.10;;;4.40;99.90;;;;;;5112155;28;20384;-76
2024/03/06 01:35:32;;;;;;;59.50;29.90;;;4.40;99.90;;;;;;5115333;28;20380;-74
2024/03/06 01:37:58;;;;;;;63.20;31.23;;;4.40;99.90;;;;;;5118769;28;20406;-74
2024/03/06 01:40:23;;;;;;;60.33;31.03;;;4.30;99.90;;;;;;5124765;28;20786;-75
2024/03/06 01:42:49;;;;;;;62.22;30.85;;;4.50;99.90;;;;;;5120448;28;20383;-74
2024/03/06 01:45:15;;;;;;;54.67;28.35;;;4.70;99.90;;;;;;5111715;28;20388;-75
2024/03/06 01:47:41;;;;;;;53.60;29.23;;;4.70;99.90;;;;;;5111366;28;20411;-75
2024/03/06 01:50:10;;;;;;;60.53;30.70;;;4.50;99.90;;;;;;5111618;28;20372;-72
2024/03/06 01:52:37;;;;;;;61.40;31.65;;;4.40;99.90;;;;;;5111209;28;20463;-74
2024/03/06 01:55:05;;;;;;;56.50;28.58;;;4.20;99.90;;;;;;5111750;28;20376;-75
2024/03/06 01:57:30;;;;;;;59.05;30.33;;;4.10;99.90;;;;;;5115006;28;20700;-74
2024/03/06 01:59:57;;;;;;;64.95;31.92;;;4.10;99.90;;;;;;5097342;28;20464;-72
2024/03/06 02:02:22;;;;;;;63.28;30.85;;;4.00;99.90;;;;;;5115649;28;20419;-73
2024/03/06 02:04:48;;;;;;;60.63;30.17;;;4.00;99.90;;;;;;5097970;28;20428;-73
2024/03/06 02:07:15;;;;;;;68.30;31.38;;;4.00;99.90;;;;;;5118955;28;20373;-74
2024/03/06 02:09:42;;;;;;;61.33;30.65;;;4.00;99.90;;;;;;5122516;28;20388;-76
2024/03/06 02:12:08;;;;;;;66.05;31.55;;;4.00;99.90;;;;;;5120050;28;20380;-74
2024/03/06 02:14:35;;;;;;;69.53;30.58;;;4.00;99.90;;;;;;5115018;28;20455;-73
2024/03/06 02:17:00;;;;;;;57.97;29.42;;;4.00;99.90;;;;;;5115072;28;20441;-75
2024/03/06 02:19:38;;;;;;;59.90;31.17;;;4.00;99.90;;;;;;5115361;28;20392;-75
2024/03/06 02:22:03;;;;;;;63.97;33.13;;;4.10;99.90;;;;;;5115498;28;20370;-74
2024/03/06 02:24:29;;;;;;;61.20;32.20;;;4.20;99.90;;;;;;5115201;28;20387;-76
2024/03/06 02:26:56;;;;;;;62.63;30.88;;;4.30;99.90;;;;;;5115548;28;20384;-76
2024/03/06 02:29:23;;;;;;;60.63;30.70;;;4.30;99.90;;;;;;5115475;28;20377;-75
2024/03/06 02:31:49;;;;;;;57.88;30.58;;;4.20;99.90;;;;;;5115192;28;20380;-75
2024/03/06 02:34:14;;;;;;;62.42;30.75;;;4.30;99.90;;;;;;5115193;28;20379;-76
2024/03/06 02:36:40;;;;;;;62.72;30.27;;;4.30;99.90;;;;;;5115005;28;20763;-75
2024/03/06 02:39:08;;;;;;;59.35;29.90;;;4.30;99.90;;;;;;5115346;28;20376;-73
2024/03/06 02:41:36;;;;;;;60.25;30.13;;;4.30;99.90;;;;;;5116245;28;20386;-74
2024/03/06 02:44:02;;;;;;;58.83;30.30;;;4.30;99.90;;;;;;5116821;28;20519;-76
2024/03/06 02:46:28;;;;;;;57.60;29.00;;;4.30;99.90;;;;;;5115267;28;20978;-76
2024/03/06 02:48:54;;;;;;;57.92;28.58;;;4.30;99.90;;;;;;5115584;28;20424;-76
2024/03/06 02:51:20;;;;;;;59.67;30.77;;;4.30;99.90;;;;;;5115173;28;20387;-77
2024/03/06 02:53:46;;;;;;;54.55;28.40;;;4.30;99.90;;;;;;5096650;28;20735;-76
2024/03/06 02:56:18;;;;;;;55.45;28.15;;;4.30;99.90;;;;;;5114938;28;20407;-75
2024/03/06 02:58:44;;;;;;;58.45;29.38;;;4.20;99.90;;;;;;5114841;28;20815;-76
2024/03/06 03:01:10;;;;;;;60.38;30.70;;;4.20;99.90;;;;;;5114955;28;20584;-75
2024/03/06 03:03:35;;;;;;;57.77;29.47;;;4.20;99.90;;;;;;5114390;28;20936;-76
2024/03/06 03:06:02;;;;;;;58.13;30.30;;;4.30;99.90;;;;;;5114854;28;20774;-76
2024/03/06 03:08:28;;;;;;;61.92;30.65;;;4.30;99.90;;;;;;5112977;28;20505;-76
2024/03/06 03:10:53;;;;;;;58.53;29.60;;;4.30;99.90;;;;;;5097467;28;20823;-75
2024/03/06 03:13:19;;;;;;;62.33;30.35;;;4.20;99.90;;;;;;5115905;28;20372;-76
2024/03/06 03:15:44;;;;;;;57.30;29.55;;;4.20;99.90;;;;;;5114128;28;20424;-73
2024/03/06 03:18:10;;;;;;;62.05;31.35;;;4.30;99.90;;;;;;5115281;28;20384;-75
2024/03/06 03:20:36;;;;;;;56.65;29.42;;;4.20;99.90;;;;;;5115047;28;20429;-75
2024/03/06 03:23:02;;;;;;;55.63;29.58;;;4.20;99.90;;;;;;5115692;28;20384;-77
2024/03/06 03:25:28;;;;;;;60.00;29.63;;;4.20;99.90;;;;;;5097785;28;20487;-73
2024/03/06 03:27:53;;;;;;;57.20;27.40;;;4.20;99.90;;;;;;5115721;28;20929;-76
2024/03/06 03:30:22;;;;;;;60.80;29.50;;;4.20;99.90;;;;;;5118145;28;20380;-75
2024/03/06 03:32:48;;;;;;;55.33;28.80;;;4.20;99.90;;;;;;5120460;28;20398;-76
2024/03/06 03:35:14;;;;;;;60.22;27.90;;;4.10;99.90;;;;;;5120271;28;20388;-76
2024/03/06 03:37:39;;;;;;;57.53;28.17;;;4.10;99.90;;;;;;5115489;28;20391;-76
2024/03/06 03:40:06;;;;;;;57.05;27.70;;;3.90;99.90;;;;;;5116485;28;20376;-75
2024/03/06 03:42:32;;;;;;;56.20;27.73;;;3.90;99.90;;;;;;5096882;28;20388;-75
2024/03/06 03:44:58;;;;;;;60.50;28.50;;;3.90;99.90;;;;;;5113781;28;20415;-75
2024/03/06 03:47:23;;;;;;;58.55;28.52;;;3.80;99.90;;;;;;5113692;28;20416;-75
2024/03/06 03:49:49;;;;;;;63.05;30.30;;;3.80;99.90;;;;;;5113164;28;20437;-77
2024/03/06 03:52:15;;;;;;;63.23;29.30;;;3.90;99.90;;;;;;5113432;28;20394;-76
2024/03/06 03:54:41;;;;;;;58.78;28.08;;;3.90;99.90;;;;;;5113437;28;20475;-75
2024/03/06 03:57:08;;;;;;;55.33;27.57;;;3.80;99.90;;;;;;5113425;28;20419;-77
2024/03/06 03:59:33;;;;;;;62.85;29.77;;;3.80;99.90;;;;;;5116088;28;20474;-75
2024/03/06 04:01:59;;;;;;;62.60;30.20;;;3.90;99.90;;;;;;5115424;28;20417;-75
2024/03/06 04:04:24;;;;;;;59.93;30.23;;;3.90;99.90;;;;;;5113310;28;20769;-76
2024/03/06 04:06:50;;;;;;;63.23;30.93;;;3.90;99.90;;;;;;5113331;28;20516;-75
2024/03/06 04:09:16;;;;;;;64.27;30.47;;;3.80;99.90;;;;;;5113588;28;20375;-76
2024/03/06 04:11:41;;;;;;;63.27;31.07;;;3.80;99.90;;;;;;5113338;28;20388;-74
2024/03/06 04:14:07;;;;;;;69.03;31.40;;;3.80;99.90;;;;;;5095372;28;20391;-76
2024/03/06 04:16:33;;;;;;;64.70;29.88;;;3.80;99.90;;;;;;5113746;28;20988;-74
2024/03/06 04:18:59;;;;;;;61.30;30.75;;;3.80;99.90;;;;;;5113580;28;20913;-77
2024/03/06 04:21:25;;;;;;;60.93;29.60;;;3.80;99.90;;;;;;5114283;28;20384;-76
2024/03/06 04:23:50;;;;;;;64.53;30.20;;;3.70;99.90;;;;;;5114040;28;20391;-74
2024/03/06 04:26:17;;;;;;;69.63;30.52;;;3.70;99.90;;;;;;5118609;28;20398;-74
2024/03/06 04:28:43;;;;;;;67.13;30.55;;;3.70;99.90;;;;;;5132360;28;20399;-73
2024/03/06 04:31:09;;;;;;;66.13;31.60;;;3.70;99.90;;;;;;5132011;28;20429;-75
2024/03/06 04:33:34;;;;;;;66.30;30.70;;;3.70;99.90;;;;;;5113450;28;20380;-75
2024/03/06 04:36:05;;;;;;;68.82;32.33;;;3.80;99.90;;;;;;5113057;28;20368;-75
2024/03/06 04:38:31;;;;;;;66.50;32.15;;;3.80;99.90;;;;;;5094625;28;20396;-74
2024/03/06 04:40:56;;;;;;;66.57;32.25;;;3.80;99.90;;;;;;5113756;28;20450;-76
2024/03/06 04:43:22;;;;;;;64.20;30.13;;;3.80;99.90;;;;;;5113325;28;20769;-75
2024/03/06 04:45:47;;;;;;;66.35;31.38;;;3.80;99.90;;;;;;5113704;28;20388;-76
2024/03/06 04:48:13;;;;;;;68.63;31.92;;;3.80;99.90;;;;;;5112858;28;20380;-76
2024/03/06 04:50:38;;;;;;;69.22;31.23;;;3.80;99.90;;;;;;5117702;28;20376;-75
2024/03/06 04:53:04;;;;;;;66.00;31.70;;;3.70;99.90;;;;;;5112324;28;20494;-75
2024/03/06 04:55:30;;;;;;;64.60;29.80;;;3.70;99.90;;;;;;5112767;28;20979;-77
2024/03/06 04:57:56;;;;;;;65.25;31.80;;;3.80;99.90;;;;;;5112337;28;21276;-75
2024/03/06 05:00:23;;;;;;;60.55;31.23;;;4.20;99.90;;;;;;5112172;28;20479;-75
2024/03/06 05:02:51;;;;;;;64.03;30.35;;;4.10;99.90;;;;;;5113115;28;20384;-76
2024/03/06 05:05:16;;;;;;;68.07;32.50;;;3.90;99.90;;;;;;5112240;28;20506;-76
2024/03/06 05:07:42;;;;;;;71.35;33.20;;;3.80;99.90;;;;;;5112057;28;20482;-76
2024/03/06 05:10:08;;;;;;;66.50;32.28;;;3.80;99.90;;;;;;5112243;28;20371;-76
2024/03/06 05:12:34;;;;;;;61.13;31.25;;;3.80;99.90;;;;;;5112328;28;20407;-76
2024/03/06 05:15:00;;;;;;;71.95;31.85;;;3.70;99.90;;;;;;5112239;28;20384;-76
2024/03/06 05:17:25;;;;;;;73.00;31.80;;;3.70;99.90;;;;;;5111688;28;20409;-74
2024/03/06 05:19:51;;;;;;;63.70;31.30;;;3.70;99.90;;;;;;5113230;28;20928;-73
2024/03/06 05:22:17;;;;;;;70.10;32.67;;;3.70;99.90;;;;;;5112251;28;20388;-75
2024/03/06 05:24:43;;;;;;;73.63;33.95;;;3.70;99.90;;;;;;5112008;28;20431;-75
2024/03/06 05:27:10;;;;;;;72.72;32.55;;;3.80;99.90;;;;;;5111678;28;20574;-75
2024/03/06 05:29:36;;;;;;;76.95;32.88;;;3.80;99.90;;;;;;5112168;28;20388;-76
2024/03/06 05:32:03;;;;;;;76.72;32.60;;;3.80;99.90;;;;;;5111163;28;20416;-76
2024/03/06 05:34:29;;;;;;;75.90;33.50;;;3.80;99.90;;;;;;5094168;28;20501;-75
2024/03/06 05:36:55;;;;;;;73.10;32.92;;;3.80;99.90;;;;;;5111629;28;20380;-75
2024/03/06 05:39:21;;;;;;;72.88;34.22;;;3.90;99.90;;;;;;5112344;28;20437;-76
2024/03/06 05:41:47;;;;;;;76.20;33.77;;;4.00;99.90;;;;;;5107555;28;20485;-76
2024/03/06 05:44:12;;;;;;;72.13;34.35;;;4.00;99.90;;;;;;5111437;28;20448;-76
2024/03/06 05:46:38;;;;;;;72.22;33.63;;;4.20;99.90;;;;;;5090082;28;20508;-74
2024/03/06 05:49:04;;;;;;;78.75;34.97;;;4.20;99.90;;;;;;5092066;28;20494;-74
2024/03/06 05:51:30;;;;;;;83.20;35.03;;;4.30;99.90;;;;;;5093823;28;20385;-75
2024/03/06 05:53:56;;;;;;;84.37;38.10;;;4.50;99.90;;;;;;5101316;28;20888;-72
2024/03/06 05:56:21;;;;;;;85.80;35.83;;;4.60;99.90;;;;;;5091330;28;20389;-73
2024/03/06 05:58:49;;;;;;;82.03;36.78;;;4.70;99.90;;;;;;5102614;28;20475;-71
2024/03/06 06:01:21;;;;;;;75.70;33.85;;;4.70;99.90;;;;;;5111793;28;20380;-74
2024/03/06 06:03:47;;;;;;;76.73;34.10;;;4.70;99.90;;;;;;5104122;28;20477;-75
2024/03/06 06:06:16;;;;;;;77.10;35.55;;;4.70;99.90;;;;;;5091172;28;20422;-72
2024/03/06 06:08:43;;;;;;;74.47;33.00;;;4.70;99.90;;;;;;5072435;28;20386;-71
2024/03/06 06:11:10;;;;;;;74.30;33.03;;;4.70;99.90;;;;;;5092562;28;20386;-73
2024/03/06 06:13:35;;;;;;;72.30;34.17;;;4.80;99.90;;;;;;5111457;28;20383;-73
2024/03/06 06:16:02;;;;;;;74.85;33.25;;;4.90;99.90;;;;;;5101128;28;20389;-73
2024/03/06 06:18:28;;;;;;;65.50;31.10;;;4.80;99.90;;;;;;5098465;28;20378;-71
2024/03/06 06:20:53;;;;;;;66.07;31.40;;;4.80;99.90;;;;;;5106662;28;20392;-72
2024/03/06 06:23:19;;;;;;;64.50;31.50;;;4.90;99.90;;;;;;5103982;28;20411;-75
2024/03/06 06:25:45;;;;;;;70.25;33.90;;;5.10;99.90;;;;;;5111355;28;20407;-77
2024/03/06 06:28:11;;;;;;;72.28;32.15;;;5.20;99.90;;;;;;5097879;28;20784;-77
2024/03/06 06:30:38;;;;;;;67.03;31.23;;;5.20;99.90;;;;;;5094703;28;20383;-73
2024/03/06 06:33:04;;;;;;;59.42;30.52;;;5.40;99.90;;;;;;5096189;28;20374;-77
2024/03/06 06:35:30;;;;;;;63.80;30.88;;;5.50;99.90;;;;;;5093407;28;20417;-75
2024/03/06 06:37:55;;;;;;;62.87;28.90;;;5.70;99.90;;;;;;5091770;28;20386;-76
2024/03/06 06:40:21;;;;;;;66.97;30.70;;;5.80;99.90;;;;;;5092042;28;20382;-76
2024/03/06 06:42:49;;;;;;;60.65;30.30;;;5.80;99.90;;;;;;5093773;28;20466;-75
2024/03/06 06:45:19;;;;;;;73.88;33.90;;;5.90;99.90;;;;;;5096744;28;20500;-76
2024/03/06 06:47:45;;;;;;;67.17;33.00;;;5.90;99.90;;;;;;5096075;28;20913;-76
2024/03/06 06:50:11;;;;;;;64.03;31.25;;;6.00;99.90;;;;;;5099319;28;20378;-76
2024/03/06 06:52:40;;;;;;;60.03;31.20;;;6.10;99.90;;;;;;5099301;28;20397;-77
2024/03/06 06:55:06;;;;;;;68.15;32.63;;;6.20;99.90;;;;;;5094834;28;20401;-76
2024/03/06 06:57:33;;;;;;;65.38;32.20;;;6.20;99.90;;;;;;5094750;28;20461;-76
2024/03/06 06:59:59;;;;;;;71.05;32.50;;;6.20;99.90;;;;;;5101012;28;20386;-74
2024/03/06 07:02:25;;;;;;;61.05;30.75;;;6.20;99.90;;;;;;5096534;28;20406;-76
2024/03/06 07:04:52;;;;;;;64.30;31.53;;;6.20;99.90;;;;;;5084321;28;20409;-76
2024/03/06 07:07:17;;;;;;;66.10;32.58;;;6.20;99.90;;;;;;5096134;28;20458;-76
2024/03/06 07:09:43;;;;;;;62.20;30.80;;;6.20;99.90;;;;;;5098972;28;20390;-76
2024/03/06 07:12:09;;;;;;;66.80;31.40;;;6.20;99.90;;;;;;5105152;28;20410;-74
2024/03/06 07:14:35;;;;;;;63.83;31.30;;;6.20;99.90;;;;;;5110347;28;20371;-74
2024/03/06 07:17:00;;;;;;;63.27;31.57;;;6.20;99.90;;;;;;5107075;28;20485;-75
2024/03/06 07:19:26;;;;;;;66.27;31.80;;;6.20;99.90;;;;;;5098272;28;20445;-75
2024/03/06 07:21:53;;;;;;;70.57;34.07;;;6.30;99.90;;;;;;5103382;28;20382;-74
2024/03/06 07:24:19;;;;;;;74.63;33.30;;;6.40;99.90;;;;;;5095427;28;20393;-75
2024/03/06 07:26:44;;;;;;;67.77;33.03;;;6.50;99.90;;;;;;5095560;28;20394;-75
2024/03/06 07:29:14;;;;;;;74.83;34.13;;;6.60;99.90;;;;;;5093958;28;20717;-75
2024/03/06 07:31:43;;;;;;;68.03;32.38;;;6.70;99.90;;;;;;5094026;28;20382;-74
2024/03/06 07:34:09;;;;;;;69.82;33.03;;;6.90;99.90;;;;;;5102204;28;20445;-74
2024/03/06 07:36:35;;;;;;;61.15;31.90;;;7.10;99.90;;;;;;5105399;28;20386;-73
2024/03/06 07:39:02;;;;;;;75.65;33.53;;;7.20;99.90;;;;;;5076374;28;20386;-75
2024/03/06 07:41:28;;;;;;;68.43;32.55;;;7.40;99.90;;;;;;5093560;28;20956;-75
2024/03/06 07:43:53;;;;;;;78.07;36.90;;;7.40;99.90;;;;;;5093088;28;20421;-74
2024/03/06 07:46:19;;;;;;;88.00;37.20;;;7.60;99.90;;;;;;5093335;28;20402;-74
2024/03/06 07:48:45;;;;;;;85.00;36.07;;;7.60;99.90;;;;;;5092991;28;20796;-76
2024/03/06 07:51:10;;;;;;;78.22;35.08;;;7.90;96.70;;;;;;5093178;28;20745;-75
2024/03/06 07:53:36;;;;;;;85.30;36.92;;;8.00;95.60;;;;;;5098881;28;20417;-74
2024/03/06 07:56:03;;;;;;;83.28;37.30;;;8.10;92.60;;;;;;5093038;28;20483;-74
2024/03/06 07:58:28;;;;;;;92.70;39.65;;;8.30;88.80;;;;;;5094609;28;20386;-74
2024/03/06 08:00:56;;;;;;;79.53;36.80;;;8.40;88.90;;;;;;5093135;28;20472;-74
2024/03/06 08:03:22;;;;;;;82.15;35.03;;;8.50;88.60;;;;;;5092932;28;20810;-75
2024/03/06 08:05:52;;;;;;;86.35;37.45;;;8.70;85.60;;;;;;5092902;28;20390;-73
2024/03/06 08:08:19;;;;;;;80.78;36.78;;;8.70;83.10;;;;;;5092545;28;20494;-74
2024/03/06 08:10:45;;;;;;;78.07;35.95;;;8.80;84.10;;;;;;5092360;28;20410;-74
2024/03/06 08:13:11;;;;;;;90.38;36.47;;;9.00;78.50;;;;;;5076805;28;20896;-74
2024/03/06 08:15:36;;;;;;;76.22;34.80;;;9.10;77.40;;;;;;5092821;28;20390;-75
2024/03/06 08:18:03;;;;;;;78.00;34.65;;;9.20;76.60;;;;;;5092233;28;20371;-76
2024/03/06 08:20:29;;;;;;;87.43;37.10;;;9.30;71.10;;;;;;5092342;28;20381;-75
2024/03/06 08:22:56;;;;;;;82.55;37.83;;;9.30;71.20;;;;;;5091973;28;20392;-75
2024/03/06 08:25:22;;;;;;;80.47;35.67;;;9.30;72.80;;;;;;5091968;28;20405;-74
2024/03/06 08:27:48;;;;;;;71.95;35.10;;;9.40;72.40;;;;;;5091948;28;20366;-74
2024/03/06 08:30:13;;;;;;;82.05;36.15;;;9.50;72.90;;;;;;5092190;28;20386;-74
2024/03/06 08:32:39;;;;;;;87.63;37.30;;;9.50;72.70;;;;;;5073793;28;20386;-74
2024/03/06 08:35:06;;;;;;;81.97;36.35;;;9.60;72.00;;;;;;5091567;28;20381;-74
2024/03/06 08:37:34;;;;;;;81.30;36.13;;;9.70;71.40;;;;;;5092184;28;20443;-75
2024/03/06 08:40:00;;;;;;;79.03;35.47;;;9.80;69.70;;;;;;5091764;28;20386;-73
2024/03/06 08:42:27;;;;;;;79.70;36.60;;;9.80;68.40;;;;;;5073330;28;20386;-74
2024/03/06 08:44:53;;;;;;;82.63;36.13;;;9.80;65.60;;;;;;5091894;28;20386;-74
2024/03/06 08:47:18;;;;;;;79.53;36.85;;;9.80;64.90;;;;;;5091349;28;20380;-75
2024/03/06 08:49:44;;;;;;;75.73;35.43;;;9.80;65.20;;;;;;5091900;28;20410;-73
2024/03/06 08:52:10;;;;;;;81.10;36.20;;;9.90;64.60;;;;;;5091705;28;20865;-75
2024/03/06 08:54:36;;;;;;;77.00;33.77;;;9.90;64.30;;;;;;5091509;28;20382;-75
2024/03/06 08:57:02;;;;;;;75.90;35.88;;;9.90;63.80;;;;;;5092506;28;20942;-75
2024/03/06 08:59:29;;;;;;;75.10;34.55;;;10.00;63.50;;;;;;5075948;28;20469;-75
2024/03/06 09:01:58;;;;;;;73.45;33.47;;;10.10;62.70;;;;;;5094164;28;20389;-75
2024/03/06 09:04:24;;;;;;;68.15;31.58;;;10.20;58.90;;;;;;5093769;28;20385;-74
2024/03/06 09:06:49;;;;;;;73.20;32.75;;;10.20;59.50;;;;;;5090183;28;20394;-75
2024/03/06 09:09:15;;;;;;;67.95;32.42;;;10.30;58.60;;;;;;5091449;28;20788;-75
2024/03/06 09:11:44;;;;;;;68.20;32.77;;;10.40;57.70;;;;;;5091482;28;20381;-74
2024/03/06 09:14:10;;;;;;;63.63;30.88;;;10.50;56.90;;;;;;5091668;28;20385;-76
2024/03/06 09:16:36;;;;;;;66.10;30.38;;;10.60;55.70;;;;;;5091633;28;20390;-73
2024/03/06 09:19:02;;;;;;;61.50;30.50;;;10.70;56.00;;;;;;5091557;28;20749;-73
2024/03/06 09:21:28;;;;;;;67.80;30.15;;;10.80;54.20;;;;;;5091230;28;20374;-75
2024/03/06 09:23:53;;;;;;;61.63;28.55;;;11.00;51.50;;;;;;5091934;28;20377;-74
2024/03/06 09:26:21;;;;;;;60.90;30.07;;;10.80;51.20;;;;;;5091621;28;20481;-76
2024/03/06 09:28:46;;;;;;;59.13;30.30;;;10.70;50.80;;;;;;5091572;28;20374;-75
2024/03/06 09:31:13;;;;;;;60.03;28.77;;;10.60;51.10;;;;;;5091133;28;20385;-74
2024/03/06 09:33:39;;;;;;;57.67;29.38;;;10.60;52.10;;;;;;5091193;28;20377;-75
2024/03/06 09:36:05;;;;;;;53.92;26.92;;;10.60;52.90;;;;;;5090901;28;20378;-74
2024/03/06 09:38:31;;;;;;;50.30;26.23;;;10.70;52.10;;;;;;5091118;28;20734;-75
2024/03/06 09:40:57;;;;;;;55.17;29.37;;;10.90;51.30;;;;;;5090969;28;20444;-73
2024/03/06 09:43:24;;;;;;;57.77;27.37;;;10.90;50.20;;;;;;5091307;28;20378;-74
2024/03/06 09:45:50;;;;;;;54.45;27.52;;;10.90;49.50;;;;;;5090427;28;20469;-74
2024/03/06 09:48:20;;;;;;;51.75;26.42;;;11.00;50.20;;;;;;5091128;28;20867;-74
2024/03/06 09:50:50;;;;;;;56.83;26.80;;;11.10;49.50;;;;;;5091083;28;20456;-75
2024/03/06 09:53:16;;;;;;;50.47;26.57;;;11.10;49.30;;;;;;5096345;28;20370;-74
2024/03/06 09:55:42;;;;;;;53.35;26.63;;;11.30;47.80;;;;;;5105898;28;20382;-73
2024/03/06 09:58:08;;;;;;;51.30;27.33;;;11.30;46.80;;;;;;5106308;28;20413;-75
2024/03/06 10:00:35;;;;;;;56.70;27.40;;;11.30;47.60;;;;;;5098654;28;20396;-75
2024/03/06 10:03:08;;;;;;;53.20;26.27;;;11.20;47.00;;;;;;5092462;28;20389;-74
2024/03/06 10:05:34;;;;;;;54.15;27.20;;;11.30;46.20;;;;;;5074049;28;20426;-74
2024/03/06 10:08:01;;;;;;;55.15;26.90;;;11.30;46.50;;;;;;5091940;28;20378;-73
2024/03/06 10:10:27;;;;;;;54.60;26.80;;;11.30;46.80;;;;;;5092801;28;20378;-74
2024/03/06 10:12:53;;;;;;;56.20;26.60;;;11.20;45.90;;;;;;5075662;28;20378;-75
2024/03/06 10:15:19;;;;;;;54.70;27.85;;;11.10;46.50;;;;;;5093733;28;20393;-74
2024/03/06 10:17:46;;;;;;;55.25;27.67;;;11.20;47.20;;;;;;5095254;28;20392;-73
2024/03/06 10:20:22;;;;;;;61.28;29.52;;;11.20;46.60;;;;;;5098012;28;20378;-74
2024/03/06 10:22:52;;;;;;;65.72;29.85;;;11.40;45.80;;;;;;5097227;28;20404;-76
2024/03/06 10:25:22;;;;;;;60.35;29.38;;;11.50;45.30;;;;;;5095477;28;20494;-75
2024/03/06 10:28:03;;;;;;;61.00;29.58;;;11.50;46.30;;;;;;5096328;28;20386;-75
2024/03/06 10:30:29;;;;;;;60.47;29.63;;;11.50;46.20;;;;;;5098145;28;20374;-74
2024/03/06 10:32:55;;;;;;;60.63;30.25;;;11.50;45.50;;;;;;5096713;28;20378;-75
2024/03/06 10:35:20;;;;;;;69.80;31.60;;;11.50;45.10;;;;;;5095125;28;20385;-74
2024/03/06 10:37:46;;;;;;;69.63;32.30;;;11.30;45.60;;;;;;5095276;28;20383;-77
2024/03/06 10:40:17;;;;;;;66.90;33.15;;;11.30;46.30;;;;;;5094865;28;20443;-73
2024/03/06 10:42:43;;;;;;;73.90;34.47;;;11.20;47.50;;;;;;5095452;28;20381;-75
2024/03/06 10:45:15;;;;;;;68.43;33.93;;;11.30;47.40;;;;;;5095499;28;20405;-74
2024/03/06 10:47:45;;;;;;;78.23;37.00;;;11.70;46.10;;;;;;5095918;28;20461;-74
2024/03/06 10:50:13;;;;;;;93.90;38.28;;;11.80;46.00;;;;;;5096422;28;20386;-73
2024/03/06 10:52:40;;;;;;;85.10;38.80;;;11.80;44.90;;;;;;5099021;28;20849;-75
2024/03/06 10:55:07;;;;;;;84.50;38.70;;;11.70;44.90;;;;;;5096987;28;20393;-74
2024/03/06 10:57:33;;;;;;;86.28;38.80;;;11.60;45.30;;;;;;5097291;28;20393;-74
2024/03/06 11:00:00;;;;;;;97.57;39.85;;;11.40;46.30;;;;;;5097655;28;20472;-75
2024/03/06 11:02:27;;;;;;;83.38;40.70;;;11.30;47.50;;;;;;5095226;28;20404;-74
2024/03/06 11:04:54;;;;;;;86.97;39.83;;;11.50;47.50;;;;;;5094869;28;20386;-74
2024/03/06 11:07:20;;;;;;;79.28;37.90;;;11.60;47.30;;;;;;5094796;28;20382;-73
2024/03/06 11:09:48;;;;;;;74.43;37.13;;;11.70;46.00;;;;;;5095017;28;20390;-76
2024/03/06 11:12:36;;;;;;;81.25;37.55;;;11.80;45.30;;;;;;5094365;28;20461;-74
2024/03/06 11:15:16;;;;;;;84.38;39.72;;;11.80;45.70;;;;;;5095408;28;20413;-76
2024/03/06 11:17:42;;;;;;;82.43;37.17;;;12.10;43.70;;;;;;5094644;28;20392;-75
2024/03/06 11:20:14;;;;;;;73.90;36.10;;;12.20;43.50;;;;;;5095236;28;20392;-75
2024/03/06 11:23:08;;;;;;;71.73;35.33;;;12.10;42.40;;;;;;5094278;28;20383;-74
2024/03/06 11:25:53;;;;;;;75.70;36.20;;;12.00;42.90;;;;;;5093733;28;20394;-74
2024/03/06 11:28:30;;;;;;;73.85;35.00;;;12.20;42.80;;;;;;5093049;28;20879;-75
2024/03/06 11:31:04;;;;;;;67.82;34.30;;;12.50;42.20;;;;;;5095563;28;20380;-76
2024/03/06 11:33:41;;;;;;;73.30;35.83;;;12.60;39.20;;;;;;5098953;28;20378;-75
2024/03/06 11:36:28;;;;;;;69.10;34.28;;;12.50;40.00;;;;;;5079071;28;20917;-76
2024/03/06 11:38:58;;;;;;;69.57;34.40;;;12.50;39.60;;;;;;5097019;28;20839;-75
2024/03/06 11:41:25;;;;;;;63.05;31.77;;;12.50;39.60;;;;;;5097662;28;20382;-76
2024/03/06 11:43:53;;;;;;;62.28;32.85;;;12.80;37.80;;;;;;5097750;28;20488;-74
2024/03/06 11:46:20;;;;;;;66.25;32.25;;;12.90;37.50;;;;;;5093686;28;20455;-74
2024/03/06 11:48:55;;;;;;;70.72;33.95;;;13.20;37.00;;;;;;5094793;28;20382;-75
2024/03/06 11:51:23;;;;;;;64.23;32.50;;;13.50;36.80;;;;;;5093875;28;20425;-75
2024/03/06 11:53:53;;;;;;;62.00;32.65;;;14.00;34.80;;;;;;5094651;28;20382;-74
2024/03/06 11:56:19;;;;;;;63.55;31.85;;;14.20;34.10;;;;;;5094781;28;20375;-73
2024/03/06 11:58:46;;;;;;;69.60;35.17;;;14.50;32.90;;;;;;5092848;28;21021;-74
2024/03/06 12:01:12;;;;;;;61.45;32.22;;;14.70;32.40;;;;;;5093475;28;20394;-75
2024/03/06 12:03:38;;;;;;;51.40;27.20;;;14.90;31.50;;;;;;5094947;28;20473;-75
2024/03/06 12:06:04;;;;;;;47.47;25.33;;;15.20;28.10;;;;;;5093914;28;20414;-75
2024/03/06 12:08:30;;;;;;;49.87;27.20;;;15.20;27.20;;;;;;5093856;28;20382;-75
2024/03/06 12:10:57;;;;;;;47.07;25.30;;;15.10;27.10;;;;;;5093589;28;20805;-72
2024/03/06 12:13:24;;;;;;;40.88;22.05;;;15.10;27.20;;;;;;5094772;28;20382;-74
2024/03/06 12:15:50;;;;;;;36.67;21.27;;;15.00;26.50;;;;;;5097114;28;20453;-74
2024/03/06 12:18:18;;;;;;;41.60;22.98;;;15.00;25.40;;;;;;5097284;28;20409;-76
2024/03/06 12:20:45;;;;;;;48.63;25.27;;;14.80;25.80;;;;;;5094414;28;20840;-73
2024/03/06 12:23:28;;;;;;;52.80;27.10;;;14.70;26.60;;;;;;5098829;28;20442;-75
2024/03/06 12:26:05;;;;;;;50.13;26.83;;;14.70;27.40;;;;;;5110046;28;20557;-76
2024/03/06 12:28:30;;;;;;;52.45;27.08;;;14.90;27.80;;;;;;5108263;28;20374;-76
2024/03/06 12:31:00;;;;;;;50.58;27.70;;;14.80;27.50;;;;;;5092718;28;20413;-75